Time;durP1;ratioP1;P1;durP2;ratioP2;P2;SDS_P1;SDS_P2;PMS_P1;PMS_P2;Temp;Humidity;BMP_temperature;BMP_pressure;BME280_temperature;BME280_humidity;BME280_pressure;Samples;Min_cycle;Max_cycle;Signal;HPM_P1;HPM_P2
2022/11/11 00:01:59;;;;;;;119.90;50.03;;;;;;;13.77;100.00;95897.16;5058009;28;20022;-92
2022/11/11 00:04:27;;;;;;;103.85;45.50;;;;;;;13.96;100.00;95894.94;5058285;28;20128;-92
2022/11/11 00:06:53;;;;;;;927.65;83.68;;;;;;;13.75;100.00;95899.25;5057702;28;20025;-91
2022/11/11 00:09:20;;;;;;;1196.13;98.90;;;;;;;13.45;100.00;95903.16;5057787;28;20029;-91
2022/11/11 00:11:46;;;;;;;159.15;62.60;;;;;;;13.63;100.00;95900.22;5041739;28;20435;-91
2022/11/11 00:14:13;;;;;;;978.30;93.50;;;;;;;13.35;100.00;95899.38;5041529;28;20071;-91
2022/11/11 00:25:21;;;;;;;586.13;72.30;;;;;;;13.76;100.00;95904.28;5057684;28;20087;-91
2022/11/11 00:27:48;;;;;;;172.05;56.53;;;;;;;13.93;100.00;95911.25;5042203;28;20028;-92
2022/11/11 00:30:17;;;;;;;339.45;59.35;;;;;;;13.77;100.00;95905.88;5057404;28;20029;-91
2022/11/11 00:32:44;;;;;;;431.85;64.57;;;;;;;13.65;100.00;95911.28;5041226;28;20037;-91
2022/11/11 00:38:04;;;;;;;;;;;;;;;;;;;;;
2022/11/11 00:40:39;;;;;;;;;;;;;;;;;;;;;
2022/11/11 00:43:07;;;;;;;129.10;52.65;;;;;;;13.45;100.00;95900.53;5058187;28;20012;-92
2022/11/11 00:45:35;;;;;;;160.30;53.22;;;;;;;13.75;100.00;95907.94;5058135;28;20021;-91
2022/11/11 00:51:02;;;;;;;129.75;55.22;;;;;;;13.69;100.00;95917.63;5056985;28;20475;-92
2022/11/11 00:53:36;;;;;;;123.93;50.72;;;;;;;13.78;100.00;95914.56;5042345;28;20040;-92
2022/11/11 00:56:05;;;;;;;149.15;58.20;;;;;;;13.21;100.00;95914.72;5041715;28;20444;-92
2022/11/11 00:58:32;;;;;;;316.27;63.92;;;;;;;13.26;100.00;95932.41;5040489;28;20080;-91
2022/11/11 01:00:58;;;;;;;153.07;56.38;;;;;;;13.50;100.00;95919.03;5040459;28;20052;-91
2022/11/11 01:03:23;;;;;;;561.88;69.55;;;;;;;13.47;100.00;95917.69;5057008;28;20087;-92
2022/11/11 01:05:51;;;;;;;128.85;51.83;;;;;;;13.79;100.00;95921.44;5057813;28;20051;-92
2022/11/11 01:08:19;;;;;;;128.52;52.25;;;;;;;13.54;100.00;95909.59;5040657;28;20025;-91
2022/11/11 01:10:51;;;;;;;138.93;54.63;;;;;;;13.58;100.00;95913.31;5040225;28;20040;-92
2022/11/11 01:13:30;;;;;;;169.10;54.77;;;;;;;13.64;100.00;95909.69;5057133;28;20068;-91
2022/11/11 01:16:06;;;;;;;118.70;50.95;;;;;;;13.82;100.00;95911.16;5040323;28;20027;-91
2022/11/11 01:18:34;;;;;;;166.70;52.85;;;;;;;13.69;100.00;95908.94;5040510;28;20360;-92
2022/11/11 01:21:04;;;;;;;133.88;51.92;;;;;;;13.91;100.00;95903.59;5039789;28;20025;-93
2022/11/11 01:23:31;;;;;;;211.38;53.90;;;;;;;13.74;100.00;95910.81;5056580;28;20106;-91
2022/11/11 01:26:03;;;;;;;130.23;52.75;;;;;;;13.67;100.00;95901.28;5039771;28;20024;-91
2022/11/11 01:28:36;;;;;;;119.85;49.65;;;;;;;13.68;100.00;95894.97;5056234;28;20052;-92
2022/11/11 01:31:06;;;;;;;123.32;53.70;;;;;;;13.73;100.00;95896.88;5040628;28;20107;-92
2022/11/11 01:33:35;;;;;;;109.00;49.85;;;;;;;13.85;100.00;95894.06;5040021;28;20036;-91
2022/11/11 01:36:08;;;;;;;112.20;50.25;;;;;;;13.94;100.00;95887.31;5055990;28;20344;-91
2022/11/11 01:38:36;;;;;;;117.38;50.10;;;;;;;13.64;100.00;95883.38;5039654;28;20425;-91
2022/11/11 01:43:34;;;;;;;111.55;49.33;;;;;;;13.85;100.00;95879.06;5055819;28;20041;-93
2022/11/11 01:46:10;;;;;;;;;;;;;;;;;;;;;
2022/11/11 01:51:37;;;;;;;153.25;56.70;;;;;;;13.20;100.00;95876.28;5056019;28;20040;-93
2022/11/11 01:54:17;;;;;;;;;;;;;;;;;;;;;
2022/11/11 01:56:55;;;;;;;157.18;57.40;;;;;;;13.59;100.00;95864.09;5051619;28;20043;-93
2022/11/11 01:59:30;;;;;;;;;;;;;;;;;;;;;
2022/11/11 02:02:25;;;;;;;804.15;84.10;;;;;;;13.12;100.00;95867.00;5056139;28;20024;-93
2022/11/11 02:07:36;;;;;;;1162.18;103.30;;;;;;;12.83;100.00;95875.06;5056063;28;20063;-93
2022/11/11 02:10:04;;;;;;;278.40;61.88;;;;;;;13.12;100.00;95867.00;5039983;28;20025;-92
2022/11/11 02:15:16;;;;;;;151.35;57.50;;;;;;;13.48;100.00;95884.22;5056089;28;20044;-94
2022/11/11 02:17:52;;;;;;;;;;;;;;;;;;;;;
2022/11/11 02:20:35;;;;;;;;;;;;;;;;;;;;;
2022/11/11 02:23:14;;;;;;;185.82;61.80;;;;;;;13.34;100.00;95908.31;5055875;28;20341;-92
2022/11/11 02:25:52;;;;;;;;;;;;;;;;;;;;;
2022/11/11 02:28:22;;;;;;;176.07;56.13;;;;;;;13.62;100.00;95903.88;5055623;28;20047;-93
2022/11/11 02:30:50;;;;;;;140.05;55.15;;;;;;;13.71;100.00;95912.91;5056704;28;20116;-92
2022/11/11 02:33:16;;;;;;;178.30;61.70;;;;;;;13.51;100.00;95912.72;5039787;28;20036;-93
2022/11/11 02:35:56;;;;;;;;;;;;;;;;;;;;;
2022/11/11 02:38:26;;;;;;;153.60;59.80;;;;;;;13.84;100.00;95914.38;5055802;28;20037;-94
2022/11/11 02:43:43;;;;;;;147.32;58.92;;;;;;;13.74;100.00;95919.53;5055730;28;20348;-93
2022/11/11 02:46:11;;;;;;;143.95;55.85;;;;;;;13.66;100.00;95923.41;5039233;28;20496;-93
2022/11/11 02:48:38;;;;;;;129.68;50.00;;;;;;;13.82;100.00;95937.50;5039581;28;20113;-94
2022/11/11 02:51:07;;;;;;;126.40;52.50;;;;;;;14.00;100.00;95933.72;5039067;28;20033;-93
2022/11/11 02:53:36;;;;;;;583.20;67.85;;;;;;;13.69;100.00;95930.81;5039458;28;20021;-93
2022/11/11 02:57:06;;;;;;;145.18;55.22;;;;;;;13.73;100.00;95939.03;5055586;28;20433;-94
2022/11/11 02:59:09;;;;;;;;;;;;;;;;;;;;;
2022/11/11 03:02:10;;;;;;;;;;;;;;;;;;;;;
2022/11/11 03:04:59;;;;;;;;;;;;;;;;;;;;;
2022/11/11 03:07:40;;;;;;;;;;;;;;;;;;;;;
2022/11/11 03:10:18;;;;;;;;;;;;;;;;;;;;;
2022/11/11 03:12:54;;;;;;;;;;;;;;;;;;;;;
2022/11/11 03:15:30;;;;;;;;;;;;;;;;;;;;;
2022/11/11 03:39:45;;;;;;;;;;;;;;;;;;;;;
2022/11/11 03:49:45;;;;;;;;;;;;;;;;;;;;;
2022/11/11 03:56:09;;;;;;;;;;;;;;;;;;;;;
2022/11/11 03:59:28;;;;;;;;;;;;;;;;;;;;;
2022/11/11 04:17:18;;;;;;;;;;;;;;;;;;;;;
2022/11/11 04:22:55;;;;;;;;;;;;;;;;;;;;;
2022/11/11 04:25:52;;;;;;;114.88;44.92;;;;;;;13.97;100.00;95938.69;5058759;28;20029;-94
2022/11/11 04:31:21;;;;;;;285.95;60.40;;;;;;;13.74;100.00;95943.25;5057903;28;20110;-95
2022/11/11 04:33:54;;;;;;;206.75;53.88;;;;;;;13.83;100.00;95943.59;5057772;28;20079;-96
2022/11/11 04:36:22;;;;;;;150.95;53.53;;;;;;;13.97;100.00;95944.78;5058820;28;20345;-95
2022/11/11 04:41:32;;;;;;;762.03;73.15;;;;;;;13.81;100.00;95945.69;5058574;28;20032;-95
2022/11/11 04:46:44;;;;;;;1032.47;86.03;;;;;;;13.08;100.00;95938.78;5058663;28;20036;-95
2022/11/11 04:49:12;;;;;;;238.10;56.25;;;;;;;13.48;100.00;95926.34;5058489;28;20032;-94
2022/11/11 04:54:33;;;;;;;;;;;;;;;;;;;;;
2022/11/11 04:57:07;;;;;;;773.80;75.35;;;;;;;13.28;100.00;95946.13;5058449;28;20024;-94
2022/11/11 04:59:33;;;;;;;1000.35;96.85;;;;;;;13.23;100.00;95949.47;5058393;28;20036;-95
2022/11/11 05:04:50;;;;;;;265.48;57.38;;;;;;;13.53;100.00;95942.22;5058239;28;20039;-94
2022/11/11 05:11:02;;;;;;;;;;;;;;;;;;;;;
2022/11/11 05:22:36;;;;;;;844.72;87.10;;;;;;;13.28;100.00;95964.56;5056934;28;20059;-94
2022/11/11 05:28:04;;;;;;;182.52;63.15;;;;;;;13.41;100.00;95966.81;5048006;28;20032;-94
2022/11/11 05:30:40;;;;;;;;;;;;;;;;;;;;;
2022/11/11 05:33:15;;;;;;;;;;;;;;;;;;;;;
2022/11/11 05:35:44;;;;;;;663.20;76.25;;;;;;;13.64;100.00;95964.19;5057602;28;20032;-94
2022/11/11 05:38:19;;;;;;;544.95;68.75;;;;;;;13.50;100.00;95966.44;5057311;28;20036;-92
2022/11/11 05:40:55;;;;;;;;;;;;;;;;;;;;;
2022/11/11 05:43:25;;;;;;;227.45;54.72;;;;;;;13.66;100.00;95962.91;5055911;28;20337;-90
2022/11/11 05:45:58;;;;;;;121.88;46.45;;;;;;;13.74;100.00;95968.78;5057114;28;20433;-91
2022/11/11 05:48:29;;;;;;;139.10;47.25;;;;;;;13.73;100.00;95964.53;5057025;28;20025;-91
2022/11/11 05:51:09;;;;;;;;;;;;;;;;;;;;;
2022/11/11 05:53:39;;;;;;;131.48;45.28;;;;;;;13.70;100.00;95977.19;5055736;28;20035;-91
2022/11/11 05:56:12;;;;;;;133.18;46.80;;;;;;;13.86;100.00;95982.59;5056866;28;20040;-92
2022/11/11 05:58:48;;;;;;;;;;;;;;;;;;;;;
2022/11/11 06:01:21;;;;;;;114.05;42.47;;;;;;;13.90;100.00;95978.41;5056243;28;20021;-90
2022/11/11 06:03:48;;;;;;;125.13;45.92;;;;;;;13.77;100.00;95984.06;5056567;28;20056;-89
2022/11/11 06:06:16;;;;;;;121.22;43.65;;;;;;;14.00;100.00;95975.09;5056967;28;20060;-91
2022/11/11 06:08:51;;;;;;;115.38;43.35;;;;;;;13.99;100.00;95978.78;5055705;28;20090;-90
2022/11/11 06:11:37;;;;;;;116.85;45.38;;;;;;;13.96;100.00;95981.91;5055083;28;20025;-90
2022/11/11 06:14:03;;;;;;;106.55;42.03;;;;;;;13.98;100.00;95982.44;5055517;28;20037;-90
2022/11/11 06:16:29;;;;;;;120.25;46.78;;;;;;;13.74;100.00;95981.94;5055076;28;20033;-90
2022/11/11 06:19:02;;;;;;;111.95;42.67;;;;;;;14.00;100.00;95983.00;5056434;28;20064;-90
2022/11/11 06:21:37;;;;;;;;;;;;;;;14.04;100.00;95985.94;5056486;28;20422;-89
2022/11/11 06:24:20;;;;;;;569.47;57.00;;;;;;;13.48;100.00;95990.34;5055654;28;20301;-90
2022/11/11 06:26:45;;;;;;;122.17;45.33;;;;;;;13.81;100.00;95990.47;5039822;28;20029;-90
2022/11/11 06:29:11;;;;;;;426.17;55.75;;;;;;;13.84;100.00;95980.22;5055333;28;20329;-89
2022/11/11 06:31:44;;;;;;;238.40;52.70;;;;;;;13.08;100.00;95979.06;5054890;28;20102;-91
2022/11/11 06:34:17;;;;;;;137.13;51.30;;;;;;;13.50;100.00;95983.00;5056286;28;20029;-90
2022/11/11 06:36:43;;;;;;;191.10;57.35;;;;;;;13.46;100.00;95992.44;5055337;28;20438;-91
2022/11/11 06:39:18;;;;;;;;;;;;;;;;;;;;;
2022/11/11 06:41:49;;;;;;;166.63;56.30;;;;;;;13.65;100.00;95989.50;5058923;28;20017;-91
2022/11/11 06:44:17;;;;;;;134.15;51.53;;;;;;;13.82;100.00;95997.31;5059498;28;20029;-91
2022/11/11 06:46:55;;;;;;;;;;;;;;;;;;;;;
2022/11/11 06:49:21;;;;;;;147.10;52.28;;;;;;;13.59;100.00;96001.78;5059297;28;20035;-91
2022/11/11 06:51:47;;;;;;;156.13;55.03;;;;;;;13.45;100.00;96005.84;5059786;28;20039;-91
2022/11/11 06:54:23;;;;;;;1366.43;112.40;;;;;;;13.42;100.00;96007.91;5042114;28;20441;-91
2022/11/11 06:56:57;;;;;;;1158.15;101.03;;;;;;;13.36;100.00;96013.34;5060257;28;20047;-91
2022/11/11 06:59:23;;;;;;;;;;;;;;;13.88;100.00;96014.75;5060614;28;20062;-91
2022/11/11 07:01:55;;;;;;;150.68;56.25;;;;;;;14.20;100.00;96016.69;5058611;28;19958;-92
2022/11/11 07:04:20;;;;;;;627.80;77.43;;;;;;;13.62;100.00;96016.31;5043087;28;20124;-92
2022/11/11 07:06:56;;;;;;;;;;;;;;;;;;;;;
2022/11/11 07:09:28;;;;;;;575.22;74.25;;;;;;;13.87;100.00;96028.19;5058972;28;20013;-91
2022/11/11 07:11:54;;;;;;;302.17;63.58;;;;;;;13.82;100.00;96031.56;5059447;28;20417;-91
2022/11/11 07:14:29;;;;;;;633.60;82.28;;;;;;;13.65;100.00;96032.44;5059734;28;20029;-92
2022/11/11 07:16:56;;;;;;;169.43;60.58;;;;;;;13.90;100.00;96030.34;5043224;28;20562;-91
2022/11/11 07:19:22;;;;;;;156.25;56.67;;;;;;;14.33;100.00;96025.19;5058600;28;20021;-91
2022/11/11 07:21:47;;;;;;;143.57;55.88;;;;;;;14.62;100.00;96032.84;5041384;28;20058;-90
2022/11/11 07:24:13;;;;;;;175.63;58.83;;;;;;;14.26;100.00;96041.22;5058442;28;20437;-91
2022/11/11 07:26:41;;;;;;;422.52;69.53;;;;;;;14.03;100.00;96050.22;5058399;28;20468;-91
2022/11/11 07:29:14;;;;;;;141.18;54.53;;;;;;;14.23;100.00;96041.72;5058520;28;20031;-91
2022/11/11 07:31:50;;;;;;;;;;;;;;;;;;;;;
2022/11/11 07:34:26;;;;;;;;;;;;;;;;;;;;;
2022/11/11 07:36:52;;;;;;;92.07;41.25;;;;;;;14.79;100.00;96048.56;5043567;28;20345;-91
2022/11/11 07:39:19;;;;;;;92.85;41.55;;;;;;;14.70;100.00;96054.28;5059284;28;20112;-90
2022/11/11 07:41:52;;;;;;;95.10;43.28;;;;;;;15.12;100.00;96054.59;5057755;28;20469;-91
2022/11/11 07:44:17;;;;;;;166.75;50.47;;;;;;;15.33;100.00;96052.88;5058178;28;20035;-90
2022/11/11 07:46:46;;;;;;;142.55;49.72;;;;;;;15.49;100.00;96048.47;5059501;28;20032;-92
2022/11/11 07:49:23;;;;;;;467.23;61.88;;;;;;;14.93;100.00;96048.94;5059207;28;20329;-91
2022/11/11 07:51:58;;;;;;;1197.22;93.22;;;;;;;14.44;100.00;96048.00;5059058;28;20025;-96
2022/11/11 07:54:24;;;;;;;184.13;53.60;;;;;;;13.93;100.00;96053.53;5074694;28;20042;-96
2022/11/11 07:57:07;;;;;;;127.78;52.45;;;;;;;14.81;100.00;96057.84;5076674;28;20029;-96
2022/11/11 07:59:46;;;;;;;;;;;;;;;;;;;;;
2022/11/11 08:02:20;;;;;;;123.60;50.58;;;;;;;15.36;100.00;96054.22;5077990;28;20046;-96
2022/11/11 08:05:15;;;;;;;;;;;;;;;;;;;;;
2022/11/11 08:07:50;;;;;;;649.33;69.30;;;;;;;15.16;100.00;96062.81;5070108;28;20060;-96
2022/11/11 08:10:18;;;;;;;115.00;51.70;;;;;;;15.79;100.00;96065.50;5067732;28;20020;-96
2022/11/11 08:15:49;;;;;;;;;;;;;;;;;;;;;
2022/11/11 08:18:25;;;;;;;115.78;49.35;;;;;;;16.40;100.00;96071.25;5070156;28;20045;-96
2022/11/11 08:20:53;;;;;;;181.02;50.25;;;;;;;16.49;100.00;96074.19;5076317;28;20029;-95
2022/11/11 08:23:30;;;;;;;106.03;48.30;;;;;;;16.59;100.00;96062.81;5075402;28;20032;-95
2022/11/11 08:26:20;;;;;;;;;;;;;;;;;;;;;
2022/11/11 08:28:54;;;;;;;113.00;47.92;;;;;;;16.42;100.00;96071.78;5079210;28;20064;-96
2022/11/11 08:31:39;;;;;;;;;;;;;;;;;;;;;
2022/11/11 08:34:36;;;;;;;107.55;47.05;;;;;;;16.58;100.00;96069.16;5080567;28;20029;-96
2022/11/11 08:37:18;;;;;;;;;;;;;;;;;;;;;
2022/11/11 08:39:51;;;;;;;105.53;45.60;;;;;;;16.42;100.00;96065.69;5057275;28;20037;-90
2022/11/11 08:42:26;;;;;;;113.13;47.30;;;;;;;15.62;100.00;96068.34;5040886;28;20025;-90
2022/11/11 08:44:52;;;;;;;98.30;43.67;;;;;;;16.02;100.00;96065.34;5026647;28;20410;-90
2022/11/11 08:47:19;;;;;;;100.85;43.40;;;;;;;16.58;100.00;96069.97;5057456;28;20037;-90
2022/11/11 08:49:48;;;;;;;97.28;43.17;;;;;;;15.74;100.00;96073.44;5056957;28;20119;-90
2022/11/11 08:52:21;;;;;;;83.90;38.00;;;;;;;16.33;100.00;96074.16;5040393;28;20056;-91
2022/11/11 08:54:48;;;;;;;85.30;38.15;;;;;;;16.82;100.00;96075.53;5042016;28;20029;-91
2022/11/11 08:57:16;;;;;;;89.13;40.20;;;;;;;16.53;100.00;96083.97;5040723;28;20113;-91
2022/11/11 08:59:46;;;;;;;83.63;38.85;;;;;;;17.02;100.00;96092.50;5040646;28;20056;-91
2022/11/11 09:02:23;;;;;;;;;;;;;;;;;;;;;
2022/11/11 09:04:51;;;;;;;85.60;39.35;;;;;;;16.24;100.00;96102.16;5056680;28;20429;-91
2022/11/11 09:07:27;;;;;;;;;;;;;;;;;;;;;
2022/11/11 09:09:53;;;;;;;76.63;34.97;;;;;;;15.90;100.00;96081.44;5057783;28;20027;-90
2022/11/11 09:12:23;;;;;;;83.70;36.15;;;;;;;15.48;100.00;96075.94;5039591;28;20115;-91
2022/11/11 09:15:00;;;;;;;;;;;;;;;;;;;;;
2022/11/11 09:17:26;;;;;;;91.13;36.83;;;;;;;15.63;100.00;96083.13;5041379;28;20039;-90
2022/11/11 09:20:01;;;;;;;;;;;;;;;;;;;;;
2022/11/11 09:22:28;;;;;;;65.57;31.60;;;;;;;17.01;100.00;96100.72;5057162;28;20013;-90
2022/11/11 09:24:56;;;;;;;69.88;31.73;;;;;;;15.90;100.00;96097.31;5056086;28;20035;-91
2022/11/11 09:27:24;;;;;;;58.55;28.58;;;;;;;16.78;100.00;96110.72;5040330;28;20099;-90
2022/11/11 09:30:00;;;;;;;;;;;;;;;;;;;;;
2022/11/11 09:32:36;;;;;;;;;;;;;;;;;;;;;
2022/11/11 09:35:05;;;;;;;78.90;34.10;;;;;;;16.04;100.00;96113.47;5037292;28;20021;-91
2022/11/11 09:37:43;;;;;;;;;;;;;;;;;;;;;
2022/11/11 09:40:26;;;;;;;;;;;;;;;;;;;;;
2022/11/11 09:43:16;;;;;;;62.65;31.00;;;;;;;16.20;100.00;96117.75;5036202;28;20025;-91
2022/11/11 09:46:03;;;;;;;63.13;31.02;;;;;;;16.18;100.00;96114.56;5036041;28;20021;-91
2022/11/11 09:48:55;;;;;;;68.88;31.50;;;;;;;15.15;100.00;96117.47;5037130;28;20373;-91
2022/11/11 09:51:48;;;;;;;;;;;;;;;;;;;;;
2022/11/11 09:54:21;;;;;;;67.97;30.23;;;;;;;15.68;100.00;96117.53;5035958;28;20342;-90
2022/11/11 09:56:52;;;;;;;63.47;29.42;;;;;;;15.87;100.00;96114.44;5035864;28;20272;-91
2022/11/11 09:59:25;;;;;;;61.92;27.88;;;;;;;16.34;100.00;96122.56;5036961;28;20032;-91
2022/11/11 10:02:02;;;;;;;55.55;25.92;;;;;;;16.16;100.00;96116.69;5036382;28;20128;-91
2022/11/11 10:04:46;;;;;;;59.80;27.55;;;;;;;15.88;100.00;96125.81;5036723;28;20323;-90
2022/11/11 10:07:28;;;;;;;;;;;;;;;;;;;;;
2022/11/11 10:10:10;;;;;;;58.55;26.30;;;;;;;16.22;100.00;96126.25;5035759;28;20449;-91
2022/11/11 10:12:41;;;;;;;50.42;24.88;;;;;;;16.32;100.00;96127.31;5036442;28;20037;-91
2022/11/11 10:15:22;;;;;;;;;;;;;;;;;;;;;
2022/11/11 10:18:16;;;;;;;;;;;;;;;;;;;;;
2022/11/11 10:20:47;;;;;;;39.90;20.05;;;;;;;17.17;100.00;96122.66;5036299;28;20024;-91
2022/11/11 10:23:17;;;;;;;39.40;19.60;;;;;;;17.23;100.00;96127.69;5035417;28;20521;-90
2022/11/11 10:26:03;;;;;;;;;;;;;;;;;;;;;
2022/11/11 10:28:36;;;;;;;36.28;18.17;;;;;;;18.43;100.00;96106.13;5053867;28;20029;-92
2022/11/11 10:31:07;;;;;;;33.30;16.98;;;;;;;18.49;100.00;96103.16;5054996;28;20025;-91
2022/11/11 10:34:13;;;;;;;34.20;17.55;;;;;;;17.10;100.00;96107.03;5055326;28;20017;-91
2022/11/11 10:37:33;;;;;;;;;;;;;;;;;;;;;
2022/11/11 10:40:29;;;;;;;36.45;16.98;;;;;;;17.48;100.00;96093.47;5044186;28;20029;-90
2022/11/11 10:43:05;;;;;;;;;;;;;;;;;;;;;
2022/11/11 10:45:41;;;;;;;25.48;14.75;;;;;;;18.61;100.00;96091.41;5055364;28;20429;-91
2022/11/11 10:48:16;;;;;;;24.52;12.75;;;;;;;18.96;100.00;96084.25;5055800;28;20021;-90
2022/11/11 10:50:54;;;;;;;19.40;10.40;;;;;;;16.96;100.00;96093.53;5054804;28;20400;-90
2022/11/11 10:53:45;;;;;;;20.88;11.10;;;;;;;17.75;100.00;96076.44;5056270;28;20111;-90
2022/11/11 10:56:46;;;;;;;;;;;;;;;;;;;;;
2022/11/11 10:59:25;;;;;;;18.00;10.30;;;;;;;18.55;100.00;96087.22;5056224;28;20017;-90
2022/11/11 11:02:10;;;;;;;;;;;;;;;;;;;;;
2022/11/11 11:04:43;;;;;;;23.15;12.02;;;;;;;17.01;100.00;96082.19;5055124;28;20475;-89
2022/11/11 11:07:12;;;;;;;22.20;11.40;;;;;;;17.02;100.00;96073.97;5055304;28;20417;-89
2022/11/11 11:09:45;;;;;;;18.00;9.73;;;;;;;17.32;100.00;96064.38;5054815;28;20361;-90
2022/11/11 11:12:17;;;;;;;17.25;9.02;;;;;;;17.29;100.00;96058.84;5055167;28;20100;-90
2022/11/11 11:14:47;;;;;;;12.18;7.00;;;;;;;16.29;100.00;96064.38;5054494;28;20025;-90
2022/11/11 11:17:27;;;;;;;;;;;;;;;;;;;;;
2022/11/11 11:20:20;;;;;;;14.02;8.05;;;;;;;15.77;100.00;96067.63;5053330;28;20463;-90
2022/11/11 11:22:56;;;;;;;14.00;8.23;;;;;;;15.82;100.00;96064.97;5050198;28;20319;-90
2022/11/11 11:25:30;;;;;;;16.63;8.85;;;;;;;16.13;100.00;96047.66;5056543;28;20028;-91
2022/11/11 11:28:19;;;;;;;14.32;8.25;;;;;;;16.23;100.00;96048.50;5058613;28;20043;-90
2022/11/11 11:31:00;;;;;;;16.23;9.05;;;;;;;15.82;100.00;96054.41;5042635;28;20029;-90
2022/11/11 11:33:36;;;;;;;;;;;;;;;;;;;;;
2022/11/11 11:36:27;;;;;;;;;;;;;;;;;;;;;
2022/11/11 11:39:09;;;;;;;;;;;;;;;;;;;;;
2022/11/11 11:41:49;;;;;;;18.52;10.10;;;;;;;15.96;100.00;96046.03;5057978;28;20031;-89
2022/11/11 11:44:54;;;;;;;;;;;;;;;;;;;;;
2022/11/11 11:47:41;;;;;;;17.23;8.60;;;;;;;16.33;100.00;96045.06;5029895;28;20029;-89
2022/11/11 11:50:28;;;;;;;17.23;8.77;;;;;;;16.32;100.00;96032.91;5039272;28;20029;-89
2022/11/11 11:53:43;;;;;;;;;;;;;;;;;;;;;
2022/11/11 11:56:18;;;;;;;16.40;8.57;;;;;;;16.93;100.00;96036.59;5038115;28;20029;-90
2022/11/11 11:59:03;;;;;;;;;;;;;;;;;;;;;
2022/11/11 12:01:57;;;;;;;;;;;;;;;;;;;;;
2022/11/11 12:05:10;;;;;;;;;;;;;;;;;;;;;
2022/11/11 12:07:58;;;;;;;18.00;10.05;;;;;;;16.97;100.00;96023.63;5039267;28;20039;-90
2022/11/11 12:10:34;;;;;;;16.98;9.30;;;;;;;16.93;100.00;96020.72;5038557;28;20048;-90
2022/11/11 12:13:18;;;;;;;16.55;8.68;;;;;;;16.84;100.00;96014.38;5021744;28;20036;-90
2022/11/11 12:15:57;;;;;;;14.13;7.65;;;;;;;17.26;100.00;96015.13;5037697;28;20434;-90
2022/11/11 12:18:47;;;;;;;10.80;6.47;;;;;;;17.67;100.00;96012.34;5038869;28;20025;-90
2022/11/11 12:21:15;;;;;;;10.15;5.43;;;;;;;17.93;100.00;96020.19;5037475;28;20060;-90
2022/11/11 12:24:00;;;;;;;11.48;7.03;;;;;;;18.19;100.00;96009.44;5037906;28;20018;-90
2022/11/11 12:26:53;;;;;;;11.48;6.65;;;;;;;18.55;100.00;96010.25;5037708;28;20029;-89
2022/11/11 12:29:25;;;;;;;11.00;6.45;;;;;;;18.11;98.18;96017.16;5037671;28;20124;-90
2022/11/11 12:32:01;;;;;;;12.18;6.97;;;;;;;17.89;100.00;96011.16;5037367;28;20025;-90
2022/11/11 12:34:51;;;;;;;13.50;6.75;;;;;;;18.18;100.00;96012.38;5037332;28;20414;-90
2022/11/11 12:37:25;;;;;;;17.85;8.18;;;;;;;17.60;100.00;96009.19;5038431;28;20025;-89
2022/11/11 12:40:15;;;;;;;11.32;7.18;;;;;;;17.73;100.00;96005.16;5021578;28;20338;-89
2022/11/11 12:43:06;;;;;;;;;;;;;;;;;;;;;
2022/11/11 12:45:50;;;;;;;14.30;6.60;;;;;;;18.55;100.00;96004.94;5038287;28;20028;-89
2022/11/11 12:48:41;;;;;;;10.27;6.03;;;;;;;18.28;100.00;95992.94;5037501;28;20021;-90
2022/11/11 12:51:34;;;;;;;;;;;;;;;;;;;;;
2022/11/11 12:54:19;;;;;;;10.77;6.35;;;;;;;17.93;100.00;95993.66;5037400;28;20037;-89
2022/11/11 12:57:27;;;;;;;;;;;;;;;;;;;;;
2022/11/11 12:59:53;;;;;;;15.43;7.43;;;;;;;18.07;99.82;96001.00;5033474;28;20038;-89
2022/11/11 13:02:49;;;;;;;11.32;6.75;;;;;;;17.79;100.00;95990.03;5036579;28;20399;-89
2022/11/11 13:05:20;;;;;;;13.18;7.53;;;;;;;18.09;100.00;95996.25;5036999;28;20033;-89
2022/11/11 13:08:15;;;;;;;15.40;6.93;;;;;;;18.42;100.00;96001.84;5038048;28;20029;-89
2022/11/11 13:10:55;;;;;;;11.55;6.63;;;;;;;18.73;99.68;95996.28;5036410;28;20036;-89
2022/11/11 13:13:48;;;;;;;11.05;5.88;;;;;;;18.16;100.00;95999.38;5037749;28;20037;-89
2022/11/11 13:16:20;;;;;;;11.57;6.40;;;;;;;18.07;100.00;95993.84;5037739;28;20044;-89
2022/11/11 13:19:33;;;;;;;12.60;6.88;;;;;;;17.09;100.00;95994.25;5053122;28;20071;-89
2022/11/11 13:22:06;;;;;;;10.23;6.70;;;;;;;16.94;100.00;95982.59;5019791;28;20049;-89
2022/11/11 13:24:33;;;;;;;10.68;6.15;;;;;;;16.79;100.00;95990.56;5053300;28;20025;-89
2022/11/11 13:27:30;;;;;;;12.07;7.13;;;;;;;16.81;100.00;95999.84;5036719;28;20053;-89
2022/11/11 13:30:11;;;;;;;18.63;7.35;;;;;;;16.58;100.00;96000.38;5036421;28;20405;-89
2022/11/11 13:32:52;;;;;;;11.80;7.07;;;;;;;16.43;100.00;96001.19;5036293;28;20033;-89
2022/11/11 13:35:35;;;;;;;11.90;7.32;;;;;;;16.27;100.00;96001.16;5020680;28;20053;-89
2022/11/11 13:38:04;;;;;;;13.68;8.55;;;;;;;16.37;100.00;96003.03;5036575;28;20025;-89
2022/11/11 13:40:49;;;;;;;;;;;;;;;;;;;;;
2022/11/11 13:43:20;;;;;;;15.43;9.25;;;;;;;16.44;100.00;95995.59;5036098;28;20037;-89
2022/11/11 13:46:05;;;;;;;17.58;10.63;;;;;;;16.33;100.00;95994.00;5036276;28;20450;-89
2022/11/11 13:48:37;;;;;;;20.83;11.00;;;;;;;16.71;100.00;95999.84;5014852;28;20033;-89
2022/11/11 13:51:37;;;;;;;19.33;12.53;;;;;;;16.11;100.00;95993.19;5035189;28;20060;-90
2022/11/11 13:54:35;;;;;;;;;;;;;;;;;;;;;
2022/11/11 13:57:25;;;;;;;32.90;18.58;;;;;;;16.29;100.00;95992.97;5037035;28;20025;-89
2022/11/11 14:00:19;;;;;;;36.90;22.00;;;;;;;16.22;100.00;95994.03;5036088;28;20033;-89
2022/11/11 14:02:52;;;;;;;37.40;22.95;;;;;;;16.05;100.00;95998.72;5036708;28;20462;-89
2022/11/11 14:05:32;;;;;;;;;;;;;;;;;;;;;
2022/11/11 14:08:06;;;;;;;35.28;22.35;;;;;;;16.75;100.00;96003.53;5035734;28;20023;-89
2022/11/11 14:10:48;;;;;;;;;;;;;;;;;;;;;
2022/11/11 14:13:20;;;;;;;40.13;25.85;;;;;;;16.48;100.00;96009.09;5036915;28;20034;-89
2022/11/11 14:15:49;;;;;;;41.47;26.17;;;;;;;16.49;100.00;96006.19;5036971;28;20075;-89
2022/11/11 14:18:18;;;;;;;46.95;27.00;;;;;;;16.62;100.00;96004.06;5036375;28;20044;-90
2022/11/11 14:20:45;;;;;;;40.00;24.95;;;;;;;16.54;100.00;96002.75;5034746;28;20036;-89
2022/11/11 14:23:16;;;;;;;45.60;25.45;;;;;;;16.34;100.00;96004.34;5035211;28;20060;-89
2022/11/11 14:25:50;;;;;;;52.17;30.20;;;;;;;16.23;100.00;96011.47;5055681;28;20064;-89
2022/11/11 14:28:22;;;;;;;52.38;32.55;;;;;;;16.60;100.00;96014.94;5055631;28;20029;-89
2022/11/11 14:31:00;;;;;;;53.40;31.90;;;;;;;16.50;100.00;96013.09;5026974;28;20035;-95
2022/11/11 14:33:45;;;;;;;;;;;;;;;;;;;;;
2022/11/11 14:36:48;;;;;;;57.40;34.35;;;;;;;16.40;100.00;96013.06;5055835;28;20037;-95
2022/11/11 14:39:52;;;;;;;;;;;;;;;;;;;;;
2022/11/11 14:42:44;;;;;;;79.03;43.55;;;;;;;15.91;100.00;96012.44;5053496;28;20050;-95
2022/11/11 14:45:45;;;;;;;85.75;48.38;;;;;;;15.74;100.00;96015.28;5031498;28;20052;-96
2022/11/11 14:49:01;;;;;;;;;;;;;;;;;;;;;
2022/11/11 14:51:40;;;;;;;81.28;44.08;;;;;;;16.14;100.00;96018.31;5043893;28;20089;-94
2022/11/11 14:54:41;;;;;;;74.47;42.97;;;;;;;15.94;100.00;96013.78;5030185;28;20358;-95
2022/11/11 14:57:26;;;;;;;;;;;;;;;;;;;;;
2022/11/11 14:59:54;;;;;;;77.25;43.53;;;;;;;16.09;100.00;96008.53;5036286;28;20028;-89
2022/11/11 15:02:49;;;;;;;86.43;47.78;;;;;;;16.02;100.00;96005.34;5038940;28;20021;-89
2022/11/11 15:05:23;;;;;;;78.72;44.80;;;;;;;16.01;100.00;96008.25;5039434;28;20434;-90
2022/11/11 15:08:02;;;;;;;89.25;47.83;;;;;;;15.94;100.00;96008.50;5040053;28;20026;-89
2022/11/11 15:10:54;;;;;;;85.22;48.38;;;;;;;15.52;100.00;96007.56;5022403;28;20084;-89
2022/11/11 15:13:29;;;;;;;95.28;52.25;;;;;;;14.98;100.00;96006.75;5022679;28;20029;-89
2022/11/11 15:16:17;;;;;;;98.75;54.85;;;;;;;15.04;100.00;96007.56;5039293;28;20126;-89
2022/11/11 15:19:05;;;;;;;99.53;51.35;;;;;;;14.70;100.00;95998.91;5039187;28;20026;-89
2022/11/11 15:21:36;;;;;;;92.65;50.72;;;;;;;15.13;100.00;96000.75;5039106;28;20036;-89
2022/11/11 15:24:33;;;;;;;;;;;;;;;;;;;;;
2022/11/11 15:27:11;;;;;;;96.95;52.42;;;;;;;14.79;100.00;96001.88;5038745;28;20032;-89
2022/11/11 15:29:49;;;;;;;94.05;52.90;;;;;;;15.02;100.00;95994.63;5039761;28;20025;-89
2022/11/11 15:32:36;;;;;;;96.63;51.80;;;;;;;15.13;100.00;96000.75;5037951;28;20083;-90